0L7 weather

Jean Airport
Jean, Nevada, United States

Public forecast

Using degrees Fahrenheit for public forecast. Weather courtesy of forecast.io.

Closest aviation weather report (METAR) to Jean Airport

Closest report is Henderson Executive Airport, 15.5 nm (28.8 km) NE. Retrieved 2019/12/13 14:56 UTC (1 hour ago):

KHND 131456Z 19009KT 10SM CLR 04/02 A3021 RMK AO2 SLP254 T00390017 55003

Closest aviation forecast (TAF) to Jean Airport

Closest forecast is Henderson Executive Airport, 15.5 nm (28.8 km) NE. Retrieved 2019/12/13 12:22 UTC (4 hours ago):

TAF KHND 131120Z 1312/1412 18006KT P6SM FEW140 FEW250 FM131700 VRB04KT P6SM FEW140 FEW250 FM131900 05006KT P6SM FEW140 SCT250 FM140300 18007KT P6SM SCT140 BKN250